HNL weather

Daniel K Inouye International Airport
Honolulu, Hawaii, United States

Public forecast

Using degrees Fahrenheit for public forecast. Weather courtesy of forecast.io.

METAR (pilot weather report)

Retrieved 2018/06/18 13:53 UTC (59 minutes ago):

PHNL 181353Z 36003KT 10SM FEW024 23/18 A2999

TAF (pilot weather forecast)

Retrieved 2018/06/18 15:06 UTC (0 seconds ago):

TAF PHNL 181503Z 1815/1918 35005KT P6SM FEW025 BKN250 FM182000 05012KT P6SM FEW025 SCT050 SCT250 FM190500 05005KT P6SM FEW025 SCT050 FM191000 35005KT P6SM FEW025 SCT050